sensor_id;sensor_type;location;lat;lon;timestamp;P1;durP1;ratioP1;P2;durP2;ratioP2
4692;SDS011;11710;48.024;16.296;2023-04-03T06:01:52;6.10;;;5.00;;
4692;SDS011;11710;48.024;16.296;2023-04-03T06:04:19;5.00;;;4.30;;
4692;SDS011;11710;48.024;16.296;2023-04-03T06:06:48;6.18;;;4.55;;
4692;SDS011;11710;48.024;16.296;2023-04-03T06:09:17;4.60;;;4.20;;
4692;SDS011;11710;48.024;16.296;2023-04-03T06:11:45;5.03;;;4.53;;
4692;SDS011;11710;48.024;16.296;2023-04-03T06:14:12;5.25;;;4.38;;
4692;SDS011;11710;48.024;16.296;2023-04-03T06:16:39;5.38;;;4.45;;
4692;SDS011;11710;48.024;16.296;2023-04-03T06:19:08;6.07;;;4.35;;
4692;SDS011;11710;48.024;16.296;2023-04-03T06:21:36;6.85;;;4.85;;
4692;SDS011;11710;48.024;16.296;2023-04-03T06:24:03;6.40;;;4.90;;
4692;SDS011;11710;48.024;16.296;2023-04-03T06:26:31;6.55;;;4.80;;
4692;SDS011;11710;48.024;16.296;2023-04-03T06:28:58;5.18;;;4.40;;
4692;SDS011;11710;48.024;16.296;2023-04-03T06:31:25;5.25;;;4.30;;
4692;SDS011;11710;48.024;16.296;2023-04-03T06:33:52;6.15;;;4.57;;
4692;SDS011;11710;48.024;16.296;2023-04-03T06:36:21;5.28;;;4.60;;
4692;SDS011;11710;48.024;16.296;2023-04-03T06:38:49;7.40;;;4.95;;
4692;SDS011;11710;48.024;16.296;2023-04-03T06:41:16;5.30;;;4.60;;
4692;SDS011;11710;48.024;16.296;2023-04-03T06:43:44;7.65;;;4.80;;
4692;SDS011;11710;48.024;16.296;2023-04-03T06:46:15;5.10;;;4.60;;
4692;SDS011;11710;48.024;16.296;2023-04-03T06:48:43;5.93;;;5.00;;
4692;SDS011;11710;48.024;16.296;2023-04-03T06:51:14;5.90;;;4.72;;
4692;SDS011;11710;48.024;16.296;2023-04-03T06:53:46;5.43;;;4.70;;
4692;SDS011;11710;48.024;16.296;2023-04-03T06:56:14;5.68;;;4.80;;
4692;SDS011;11710;48.024;16.296;2023-04-03T06:58:41;6.15;;;5.53;;
4692;SDS011;11710;48.024;16.296;2023-04-03T07:01:09;6.05;;;4.72;;
4692;SDS011;11710;48.024;16.296;2023-04-03T07:03:37;6.05;;;4.93;;
4692;SDS011;11710;48.024;16.296;2023-04-03T07:06:05;7.22;;;4.60;;
4692;SDS011;11710;48.024;16.296;2023-04-03T07:08:34;5.05;;;4.55;;
4692;SDS011;11710;48.024;16.296;2023-04-03T07:11:03;5.53;;;4.88;;
4692;SDS011;11710;48.024;16.296;2023-04-03T07:13:30;6.00;;;4.47;;
4692;SDS011;11710;48.024;16.296;2023-04-03T07:15:57;6.30;;;5.13;;
4692;SDS011;11710;48.024;16.296;2023-04-03T07:18:25;5.60;;;4.80;;
4692;SDS011;11710;48.024;16.296;2023-04-03T07:20:53;7.07;;;5.20;;
4692;SDS011;11710;48.024;16.296;2023-04-03T07:23:21;6.95;;;5.07;;
4692;SDS011;11710;48.024;16.296;2023-04-03T07:25:50;5.03;;;4.53;;
4692;SDS011;11710;48.024;16.296;2023-04-03T07:28:20;6.13;;;5.38;;
4692;SDS011;11710;48.024;16.296;2023-04-03T07:30:49;5.90;;;5.30;;
4692;SDS011;11710;48.024;16.296;2023-04-03T07:33:19;8.80;;;4.97;;
4692;SDS011;11710;48.024;16.296;2023-04-03T07:35:48;5.20;;;4.70;;
4692;SDS011;11710;48.024;16.296;2023-04-03T07:38:15;6.40;;;5.00;;
4692;SDS011;11710;48.024;16.296;2023-04-03T07:40:45;6.32;;;4.50;;
4692;SDS011;11710;48.024;16.296;2023-04-03T07:43:13;7.10;;;5.28;;
4692;SDS011;11710;48.024;16.296;2023-04-03T07:45:43;6.10;;;4.88;;
4692;SDS011;11710;48.024;16.296;2023-04-03T07:48:11;5.35;;;4.85;;
4692;SDS011;11710;48.024;16.296;2023-04-03T07:50:39;6.32;;;4.80;;
4692;SDS011;11710;48.024;16.296;2023-04-03T07:53:07;9.00;;;4.55;;
4692;SDS011;11710;48.024;16.296;2023-04-03T07:55:35;5.38;;;4.10;;
4692;SDS011;11710;48.024;16.296;2023-04-03T07:58:08;4.95;;;4.45;;
4692;SDS011;11710;48.024;16.296;2023-04-03T08:00:37;5.47;;;4.47;;
4692;SDS011;11710;48.024;16.296;2023-04-03T08:03:10;6.43;;;4.70;;
4692;SDS011;11710;48.024;16.296;2023-04-03T08:05:38;5.47;;;4.60;;
4692;SDS011;11710;48.024;16.296;2023-04-03T08:08:07;5.43;;;4.63;;
4692;SDS011;11710;48.024;16.296;2023-04-03T08:10:36;5.97;;;3.88;;
4692;SDS011;11710;48.024;16.296;2023-04-03T08:13:03;7.00;;;5.10;;
4692;SDS011;11710;48.024;16.296;2023-04-03T08:15:31;5.97;;;5.20;;
4692;SDS011;11710;48.024;16.296;2023-04-03T08:17:59;5.53;;;4.97;;
4692;SDS011;11710;48.024;16.296;2023-04-03T08:20:28;4.78;;;4.10;;
4692;SDS011;11710;48.024;16.296;2023-04-03T08:22:55;5.30;;;4.55;;
4692;SDS011;11710;48.024;16.296;2023-04-03T08:25:22;7.80;;;5.18;;
4692;SDS011;11710;48.024;16.296;2023-04-03T08:27:49;5.20;;;4.30;;
4692;SDS011;11710;48.024;16.296;2023-04-03T08:30:17;6.28;;;4.80;;
4692;SDS011;11710;48.024;16.296;2023-04-03T08:32:45;7.25;;;5.03;;
4692;SDS011;11710;48.024;16.296;2023-04-03T08:35:12;6.15;;;4.60;;
4692;SDS011;11710;48.024;16.296;2023-04-03T08:37:41;5.50;;;5.00;;
4692;SDS011;11710;48.024;16.296;2023-04-03T08:40:12;4.68;;;4.18;;
4692;SDS011;11710;48.024;16.296;2023-04-03T08:42:45;6.38;;;4.65;;
4692;SDS011;11710;48.024;16.296;2023-04-03T08:45:25;6.18;;;4.00;;
4692;SDS011;11710;48.024;16.296;2023-04-03T08:48:03;5.95;;;4.35;;
4692;SDS011;11710;48.024;16.296;2023-04-03T08:50:35;4.22;;;3.83;;
4692;SDS011;11710;48.024;16.296;2023-04-03T08:53:10;5.60;;;4.40;;
4692;SDS011;11710;48.024;16.296;2023-04-03T08:55:43;6.20;;;4.25;;
4692;SDS011;11710;48.024;16.296;2023-04-03T08:58:12;5.18;;;4.00;;
4692;SDS011;11710;48.024;16.296;2023-04-03T09:00:44;4.80;;;4.18;;
4692;SDS011;11710;48.024;16.296;2023-04-03T09:03:14;4.38;;;3.97;;
4692;SDS011;11710;48.024;16.296;2023-04-03T09:05:44;5.72;;;4.20;;
4692;SDS011;11710;48.024;16.296;2023-04-03T09:08:21;5.38;;;3.72;;
4692;SDS011;11710;48.024;16.296;2023-04-03T09:10:58;4.43;;;4.03;;
4692;SDS011;11710;48.024;16.296;2023-04-03T09:13:34;7.00;;;4.40;;
4692;SDS011;11710;48.024;16.296;2023-04-03T09:16:14;5.40;;;4.35;;
4692;SDS011;11710;48.024;16.296;2023-04-03T09:18:53;5.55;;;4.30;;
4692;SDS011;11710;48.024;16.296;2023-04-03T09:21:30;6.80;;;4.60;;
4692;SDS011;11710;48.024;16.296;2023-04-03T09:24:04;5.00;;;4.07;;
4692;SDS011;11710;48.024;16.296;2023-04-03T09:26:34;5.05;;;4.07;;
4692;SDS011;11710;48.024;16.296;2023-04-03T09:29:10;6.45;;;4.32;;
4692;SDS011;11710;48.024;16.296;2023-04-03T09:31:44;5.50;;;4.18;;
4692;SDS011;11710;48.024;16.296;2023-04-03T09:34:15;4.45;;;3.72;;
4692;SDS011;11710;48.024;16.296;2023-04-03T09:36:48;5.82;;;4.32;;
4692;SDS011;11710;48.024;16.296;2023-04-03T09:39:18;5.65;;;4.43;;
4692;SDS011;11710;48.024;16.296;2023-04-03T09:41:57;5.43;;;4.53;;
4692;SDS011;11710;48.024;16.296;2023-04-03T09:44:27;8.48;;;4.60;;
4692;SDS011;11710;48.024;16.296;2023-04-03T09:46:56;4.13;;;3.72;;
4692;SDS011;11710;48.024;16.296;2023-04-03T09:49:24;5.70;;;4.10;;
4692;SDS011;11710;48.024;16.296;2023-04-03T09:51:52;5.15;;;4.32;;
4692;SDS011;11710;48.024;16.296;2023-04-03T09:54:37;4.63;;;4.13;;
4692;SDS011;11710;48.024;16.296;2023-04-03T09:57:07;4.90;;;4.30;;
4692;SDS011;11710;48.024;16.296;2023-04-03T09:59:38;4.90;;;4.40;;
4692;SDS011;11710;48.024;16.296;2023-04-03T10:02:32;5.38;;;4.25;;
4692;SDS011;11710;48.024;16.296;2023-04-03T10:05:02;4.07;;;3.67;;
4692;SDS011;11710;48.024;16.296;2023-04-03T10:07:32;3.60;;;3.25;;
4692;SDS011;11710;48.024;16.296;2023-04-03T10:10:16;3.97;;;3.58;;
4692;SDS011;11710;48.024;16.296;2023-04-03T10:12:45;3.95;;;3.42;;
4692;SDS011;11710;48.024;16.296;2023-04-03T10:15:14;4.70;;;3.47;;
4692;SDS011;11710;48.024;16.296;2023-04-03T10:17:48;7.28;;;3.50;;
4692;SDS011;11710;48.024;16.296;2023-04-03T10:20:26;6.13;;;3.80;;
4692;SDS011;11710;48.024;16.296;2023-04-03T10:23:12;3.83;;;3.50;;
4692;SDS011;11710;48.024;16.296;2023-04-03T10:25:48;4.40;;;4.00;;
4692;SDS011;11710;48.024;16.296;2023-04-03T10:28:27;4.70;;;3.60;;
4692;SDS011;11710;48.024;16.296;2023-04-03T10:31:01;5.75;;;4.20;;
4692;SDS011;11710;48.024;16.296;2023-04-03T10:33:39;5.10;;;4.60;;
4692;SDS011;11710;48.024;16.296;2023-04-03T10:36:20;6.07;;;4.80;;
4692;SDS011;11710;48.024;16.296;2023-04-03T10:38:57;5.03;;;4.53;;
4692;SDS011;11710;48.024;16.296;2023-04-03T10:41:34;5.65;;;4.30;;
4692;SDS011;11710;48.024;16.296;2023-04-03T10:44:15;6.35;;;4.20;;
4692;SDS011;11710;48.024;16.296;2023-04-03T10:46:51;7.07;;;4.78;;
4692;SDS011;11710;48.024;16.296;2023-04-03T10:49:25;5.43;;;4.60;;
4692;SDS011;11710;48.024;16.296;2023-04-03T10:52:05;6.07;;;4.20;;
4692;SDS011;11710;48.024;16.296;2023-04-03T10:54:38;6.38;;;4.40;;
4692;SDS011;11710;48.024;16.296;2023-04-03T10:57:12;5.50;;;4.78;;
4692;SDS011;11710;48.024;16.296;2023-04-03T10:59:40;5.90;;;4.38;;
4692;SDS011;11710;48.024;16.296;2023-04-03T11:02:13;7.70;;;5.03;;
4692;SDS011;11710;48.024;16.296;2023-04-03T11:04:46;6.20;;;4.70;;
4692;SDS011;11710;48.024;16.296;2023-04-03T11:07:24;6.70;;;4.15;;
4692;SDS011;11710;48.024;16.296;2023-04-03T11:09:57;8.75;;;5.28;;
4692;SDS011;11710;48.024;16.296;2023-04-03T11:12:33;6.70;;;4.43;;
4692;SDS011;11710;48.024;16.296;2023-04-03T11:15:11;5.55;;;4.70;;
4692;SDS011;11710;48.024;16.296;2023-04-03T11:17:41;4.93;;;4.40;;
4692;SDS011;11710;48.024;16.296;2023-04-03T11:20:16;4.72;;;4.22;;
4692;SDS011;11710;48.024;16.296;2023-04-03T11:22:47;4.80;;;4.35;;
4692;SDS011;11710;48.024;16.296;2023-04-03T11:25:19;6.18;;;4.05;;
4692;SDS011;11710;48.024;16.296;2023-04-03T11:27:51;6.05;;;4.00;;
4692;SDS011;11710;48.024;16.296;2023-04-03T11:30:23;4.90;;;3.72;;
4692;SDS011;11710;48.024;16.296;2023-04-03T11:33:02;6.60;;;4.53;;
4692;SDS011;11710;48.024;16.296;2023-04-03T11:35:43;4.68;;;4.15;;
4692;SDS011;11710;48.024;16.296;2023-04-03T11:38:14;3.90;;;3.40;;
4692;SDS011;11710;48.024;16.296;2023-04-03T11:40:48;4.40;;;3.22;;
4692;SDS011;11710;48.024;16.296;2023-04-03T11:43:22;6.47;;;4.15;;
4692;SDS011;11710;48.024;16.296;2023-04-03T11:45:53;4.28;;;3.58;;
4692;SDS011;11710;48.024;16.296;2023-04-03T12:06:48;6.40;;;3.88;;
4692;SDS011;11710;48.024;16.296;2023-04-03T12:09:24;5.28;;;4.00;;
4692;SDS011;11710;48.024;16.296;2023-04-03T12:12:01;4.40;;;3.90;;
4692;SDS011;11710;48.024;16.296;2023-04-03T12:14:51;4.72;;;4.07;;
4692;SDS011;11710;48.024;16.296;2023-04-03T12:17:20;5.25;;;3.63;;
4692;SDS011;11710;48.024;16.296;2023-04-03T12:19:53;7.10;;;3.88;;
4692;SDS011;11710;48.024;16.296;2023-04-03T12:22:22;6.95;;;3.65;;
4692;SDS011;11710;48.024;16.296;2023-04-03T12:24:50;6.05;;;4.30;;
4692;SDS011;11710;48.024;16.296;2023-04-03T12:27:23;7.53;;;4.30;;
4692;SDS011;11710;48.024;16.296;2023-04-03T12:30:11;5.57;;;4.20;;
4692;SDS011;11710;48.024;16.296;2023-04-03T12:32:46;7.38;;;4.50;;
4692;SDS011;11710;48.024;16.296;2023-04-03T12:35:27;5.07;;;4.15;;
4692;SDS011;11710;48.024;16.296;2023-04-03T12:38:20;4.45;;;3.78;;
4692;SDS011;11710;48.024;16.296;2023-04-03T12:41:15;3.97;;;3.60;;
4692;SDS011;11710;48.024;16.296;2023-04-03T12:43:52;4.85;;;4.10;;
4692;SDS011;11710;48.024;16.296;2023-04-03T12:46:33;9.57;;;4.20;;
4692;SDS011;11710;48.024;16.296;2023-04-03T12:49:12;5.32;;;4.47;;
4692;SDS011;11710;48.024;16.296;2023-04-03T12:51:49;7.45;;;5.80;;
4692;SDS011;11710;48.024;16.296;2023-04-03T12:54:19;4.93;;;4.40;;
4692;SDS011;11710;48.024;16.296;2023-04-03T12:56:50;10.13;;;6.30;;
4692;SDS011;11710;48.024;16.296;2023-04-03T12:59:19;11.10;;;7.40;;
4692;SDS011;11710;48.024;16.296;2023-04-03T13:01:54;16.50;;;7.32;;
4692;SDS011;11710;48.024;16.296;2023-04-03T13:04:23;10.50;;;5.47;;
4692;SDS011;11710;48.024;16.296;2023-04-03T13:06:51;9.65;;;5.13;;
4692;SDS011;11710;48.024;16.296;2023-04-03T13:09:21;12.35;;;7.40;;
4692;SDS011;11710;48.024;16.296;2023-04-03T13:11:54;9.98;;;6.45;;
4692;SDS011;11710;48.024;16.296;2023-04-03T13:14:27;11.80;;;7.80;;
4692;SDS011;11710;48.024;16.296;2023-04-03T13:16:56;7.35;;;5.25;;
4692;SDS011;11710;48.024;16.296;2023-04-03T13:19:25;5.78;;;4.90;;
4692;SDS011;11710;48.024;16.296;2023-04-03T13:21:55;4.50;;;4.00;;
4692;SDS011;11710;48.024;16.296;2023-04-03T13:24:27;5.68;;;4.30;;
4692;SDS011;11710;48.024;16.296;2023-04-03T13:26:57;5.30;;;4.15;;
4692;SDS011;11710;48.024;16.296;2023-04-03T13:29:25;6.03;;;4.88;;
4692;SDS011;11710;48.024;16.296;2023-04-03T13:31:54;4.85;;;4.10;;
4692;SDS011;11710;48.024;16.296;2023-04-03T13:34:23;5.78;;;4.40;;
4692;SDS011;11710;48.024;16.296;2023-04-03T13:36:56;4.45;;;3.78;;
4692;SDS011;11710;48.024;16.296;2023-04-03T13:39:25;5.75;;;3.83;;
4692;SDS011;11710;48.024;16.296;2023-04-03T13:41:57;5.45;;;4.20;;
4692;SDS011;11710;48.024;16.296;2023-04-03T13:44:29;6.18;;;4.10;;
4692;SDS011;11710;48.024;16.296;2023-04-03T13:47:00;5.65;;;4.82;;
4692;SDS011;11710;48.024;16.296;2023-04-03T13:49:42;4.93;;;4.18;;
4692;SDS011;11710;48.024;16.296;2023-04-03T13:52:24;7.45;;;4.30;;
4692;SDS011;11710;48.024;16.296;2023-04-03T13:54:56;4.90;;;4.00;;
4692;SDS011;11710;48.024;16.296;2023-04-03T13:57:26;4.43;;;3.97;;
4692;SDS011;11710;48.024;16.296;2023-04-03T13:59:55;6.78;;;5.60;;
4692;SDS011;11710;48.024;16.296;2023-04-03T14:02:29;7.20;;;5.85;;
4692;SDS011;11710;48.024;16.296;2023-04-03T14:04:59;7.80;;;5.50;;
4692;SDS011;11710;48.024;16.296;2023-04-03T14:07:28;6.57;;;5.35;;
4692;SDS011;11710;48.024;16.296;2023-04-03T14:09:59;8.80;;;4.82;;
4692;SDS011;11710;48.024;16.296;2023-04-03T14:12:27;6.15;;;4.45;;
4692;SDS011;11710;48.024;16.296;2023-04-03T14:14:57;6.70;;;4.53;;
4692;SDS011;11710;48.024;16.296;2023-04-03T14:17:26;4.93;;;4.15;;
4692;SDS011;11710;48.024;16.296;2023-04-03T14:19:55;4.97;;;4.40;;
4692;SDS011;11710;48.024;16.296;2023-04-03T14:22:24;7.57;;;4.70;;
4692;SDS011;11710;48.024;16.296;2023-04-03T14:24:53;6.00;;;5.40;;
4692;SDS011;11710;48.024;16.296;2023-04-03T14:27:24;5.30;;;4.40;;
4692;SDS011;11710;48.024;16.296;2023-04-03T14:29:54;4.53;;;4.05;;
4692;SDS011;11710;48.024;16.296;2023-04-03T14:32:23;10.95;;;3.90;;
4692;SDS011;11710;48.024;16.296;2023-04-03T14:34:51;7.80;;;3.85;;
4692;SDS011;11710;48.024;16.296;2023-04-03T14:37:21;5.22;;;3.92;;
4692;SDS011;11710;48.024;16.296;2023-04-03T14:39:51;3.95;;;3.55;;
4692;SDS011;11710;48.024;16.296;2023-04-03T14:42:20;3.88;;;3.42;;
4692;SDS011;11710;48.024;16.296;2023-04-03T14:44:51;4.15;;;3.42;;
4692;SDS011;11710;48.024;16.296;2023-04-03T14:47:19;5.30;;;4.10;;
4692;SDS011;11710;48.024;16.296;2023-04-03T14:49:49;6.95;;;4.10;;
4692;SDS011;11710;48.024;16.296;2023-04-03T14:52:18;5.35;;;3.90;;
4692;SDS011;11710;48.024;16.296;2023-04-03T14:54:47;5.55;;;4.25;;
4692;SDS011;11710;48.024;16.296;2023-04-03T14:57:15;7.60;;;4.28;;
4692;SDS011;11710;48.024;16.296;2023-04-03T14:59:42;3.70;;;3.40;;
4692;SDS011;11710;48.024;16.296;2023-04-03T15:02:22;6.32;;;4.00;;
4692;SDS011;11710;48.024;16.296;2023-04-03T15:04:53;8.15;;;3.78;;
4692;SDS011;11710;48.024;16.296;2023-04-03T15:07:21;4.28;;;3.40;;
4692;SDS011;11710;48.024;16.296;2023-04-03T15:09:49;4.70;;;4.20;;
4692;SDS011;11710;48.024;16.296;2023-04-03T15:12:17;4.30;;;3.90;;
4692;SDS011;11710;48.024;16.296;2023-04-03T15:14:44;4.40;;;3.90;;
4692;SDS011;11710;48.024;16.296;2023-04-03T15:17:13;4.80;;;3.95;;
4692;SDS011;11710;48.024;16.296;2023-04-03T15:19:46;5.75;;;3.97;;
4692;SDS011;11710;48.024;16.296;2023-04-03T15:22:14;4.35;;;3.63;;
4692;SDS011;11710;48.024;16.296;2023-04-03T15:24:44;5.95;;;3.67;;
4692;SDS011;11710;48.024;16.296;2023-04-03T15:27:11;7.28;;;3.95;;
4692;SDS011;11710;48.024;16.296;2023-04-03T15:29:41;4.97;;;3.88;;
4692;SDS011;11710;48.024;16.296;2023-04-03T15:32:09;7.25;;;3.60;;
4692;SDS011;11710;48.024;16.296;2023-04-03T15:34:39;5.40;;;3.30;;
4692;SDS011;11710;48.024;16.296;2023-04-03T15:37:06;6.05;;;3.72;;
4692;SDS011;11710;48.024;16.296;2023-04-03T15:39:33;4.03;;;3.65;;
4692;SDS011;11710;48.024;16.296;2023-04-03T15:42:00;5.07;;;3.50;;
4692;SDS011;11710;48.024;16.296;2023-04-03T15:44:32;5.35;;;4.10;;
4692;SDS011;11710;48.024;16.296;2023-04-03T15:46:59;4.75;;;4.18;;
4692;SDS011;11710;48.024;16.296;2023-04-03T15:49:28;4.82;;;4.03;;
4692;SDS011;11710;48.024;16.296;2023-04-03T15:51:59;4.78;;;3.60;;
4692;SDS011;11710;48.024;16.296;2023-04-03T15:54:26;5.50;;;3.58;;
4692;SDS011;11710;48.024;16.296;2023-04-03T15:56:54;6.10;;;3.65;;
4692;SDS011;11710;48.024;16.296;2023-04-03T15:59:22;8.20;;;3.72;;
4692;SDS011;11710;48.024;16.296;2023-04-03T16:01:49;4.60;;;3.50;;
4692;SDS011;11710;48.024;16.296;2023-04-03T16:04:18;4.55;;;3.80;;
4692;SDS011;11710;48.024;16.296;2023-04-03T16:06:46;6.82;;;4.05;;
4692;SDS011;11710;48.024;16.296;2023-04-03T16:09:15;4.75;;;3.90;;
4692;SDS011;11710;48.024;16.296;2023-04-03T16:11:43;4.75;;;4.35;;
4692;SDS011;11710;48.024;16.296;2023-04-03T16:14:12;4.93;;;3.40;;
4692;SDS011;11710;48.024;16.296;2023-04-03T16:16:39;3.70;;;3.40;;
4692;SDS011;11710;48.024;16.296;2023-04-03T16:19:07;4.15;;;3.67;;
4692;SDS011;11710;48.024;16.296;2023-04-03T16:21:35;4.97;;;3.70;;
4692;SDS011;11710;48.024;16.296;2023-04-03T16:24:03;3.55;;;3.20;;
4692;SDS011;11710;48.024;16.296;2023-04-03T16:26:32;6.28;;;3.45;;
4692;SDS011;11710;48.024;16.296;2023-04-03T16:28:59;4.82;;;3.33;;
4692;SDS011;11710;48.024;16.296;2023-04-03T16:31:26;3.80;;;3.35;;
4692;SDS011;11710;48.024;16.296;2023-04-03T16:33:54;3.83;;;3.53;;
4692;SDS011;11710;48.024;16.296;2023-04-03T16:36:21;5.70;;;4.00;;
4692;SDS011;11710;48.024;16.296;2023-04-03T16:38:50;4.30;;;3.90;;
4692;SDS011;11710;48.024;16.296;2023-04-03T16:41:17;4.03;;;3.08;;
4692;SDS011;11710;48.024;16.296;2023-04-03T16:43:46;3.47;;;3.17;;
4692;SDS011;11710;48.024;16.296;2023-04-03T16:46:13;5.50;;;3.30;;
4692;SDS011;11710;48.024;16.296;2023-04-03T16:48:40;4.10;;;3.50;;
4692;SDS011;11710;48.024;16.296;2023-04-03T16:51:07;3.78;;;3.40;;
4692;SDS011;11710;48.024;16.296;2023-04-03T16:53:34;6.10;;;3.60;;
4692;SDS011;11710;48.024;16.296;2023-04-03T16:56:01;5.05;;;4.20;;
4692;SDS011;11710;48.024;16.296;2023-04-03T16:58:29;14.25;;;7.55;;
4692;SDS011;11710;48.024;16.296;2023-04-03T17:00:57;15.10;;;9.43;;
4692;SDS011;11710;48.024;16.296;2023-04-03T17:03:25;6.35;;;4.30;;
4692;SDS011;11710;48.024;16.296;2023-04-03T17:05:53;7.57;;;4.22;;
4692;SDS011;11710;48.024;16.296;2023-04-03T17:08:20;4.30;;;3.90;;
4692;SDS011;11710;48.024;16.296;2023-04-03T17:10:47;8.10;;;5.15;;
4692;SDS011;11710;48.024;16.296;2023-04-03T17:13:17;6.28;;;4.18;;
4692;SDS011;11710;48.024;16.296;2023-04-03T17:15:44;7.70;;;4.85;;
4692;SDS011;11710;48.024;16.296;2023-04-03T17:18:12;7.63;;;4.22;;
4692;SDS011;11710;48.024;16.296;2023-04-03T17:20:40;8.15;;;4.43;;
4692;SDS011;11710;48.024;16.296;2023-04-03T17:23:07;9.60;;;5.20;;
4692;SDS011;11710;48.024;16.296;2023-04-03T17:25:34;7.03;;;4.50;;
4692;SDS011;11710;48.024;16.296;2023-04-03T17:28:02;5.45;;;4.45;;
4692;SDS011;11710;48.024;16.296;2023-04-03T17:30:29;7.88;;;4.00;;
4692;SDS011;11710;48.024;16.296;2023-04-03T17:32:56;5.57;;;3.50;;
4692;SDS011;11710;48.024;16.296;2023-04-03T17:35:25;7.15;;;4.00;;
4692;SDS011;11710;48.024;16.296;2023-04-03T17:37:52;6.25;;;4.68;;
4692;SDS011;11710;48.024;16.296;2023-04-03T17:40:19;4.43;;;4.03;;
4692;SDS011;11710;48.024;16.296;2023-04-03T17:42:47;6.20;;;5.03;;
4692;SDS011;11710;48.024;16.296;2023-04-03T17:45:14;6.65;;;4.90;;
4692;SDS011;11710;48.024;16.296;2023-04-03T17:47:41;5.75;;;5.10;;
4692;SDS011;11710;48.024;16.296;2023-04-03T17:50:10;4.78;;;4.03;;
4692;SDS011;11710;48.024;16.296;2023-04-03T17:52:41;3.50;;;3.20;;
4692;SDS011;11710;48.024;16.296;2023-04-03T17:55:08;4.78;;;4.38;;
4692;SDS011;11710;48.024;16.296;2023-04-03T17:57:37;5.15;;;3.70;;
4692;SDS011;11710;48.024;16.296;2023-04-03T18:00:05;6.53;;;4.40;;
4692;SDS011;11710;48.024;16.296;2023-04-03T18:02:33;6.07;;;4.90;;
4692;SDS011;11710;48.024;16.296;2023-04-03T18:05:00;6.10;;;4.38;;
4692;SDS011;11710;48.024;16.296;2023-04-03T18:07:27;6.53;;;4.70;;
4692;SDS011;11710;48.024;16.296;2023-04-03T18:09:56;7.32;;;4.72;;
4692;SDS011;11710;48.024;16.296;2023-04-03T18:12:25;7.07;;;4.30;;
4692;SDS011;11710;48.024;16.296;2023-04-03T18:14:52;7.10;;;5.13;;
4692;SDS011;11710;48.024;16.296;2023-04-03T18:17:19;5.25;;;3.85;;
4692;SDS011;11710;48.024;16.296;2023-04-03T18:19:46;4.00;;;3.60;;
4692;SDS011;11710;48.024;16.296;2023-04-03T18:22:16;6.25;;;4.10;;
4692;SDS011;11710;48.024;16.296;2023-04-03T18:24:46;5.63;;;4.20;;
4692;SDS011;11710;48.024;16.296;2023-04-03T18:27:17;11.77;;;4.32;;
4692;SDS011;11710;48.024;16.296;2023-04-03T18:29:47;4.75;;;3.80;;
4692;SDS011;11710;48.024;16.296;2023-04-03T18:32:18;4.60;;;3.78;;
4692;SDS011;11710;48.024;16.296;2023-04-03T18:34:46;5.50;;;4.25;;
4692;SDS011;11710;48.024;16.296;2023-04-03T18:37:13;7.50;;;4.35;;
4692;SDS011;11710;48.024;16.296;2023-04-03T18:39:41;5.07;;;4.28;;
4692;SDS011;11710;48.024;16.296;2023-04-03T18:42:09;8.35;;;4.85;;
4692;SDS011;11710;48.024;16.296;2023-04-03T18:44:41;5.90;;;4.95;;
4692;SDS011;11710;48.024;16.296;2023-04-03T18:47:11;6.80;;;5.35;;
4692;SDS011;11710;48.024;16.296;2023-04-03T18:49:39;5.20;;;4.55;;
4692;SDS011;11710;48.024;16.296;2023-04-03T18:52:08;6.18;;;4.35;;
4692;SDS011;11710;48.024;16.296;2023-04-03T18:54:37;5.75;;;3.80;;
4692;SDS011;11710;48.024;16.296;2023-04-03T18:57:07;5.15;;;3.78;;
4692;SDS011;11710;48.024;16.296;2023-04-03T18:59:34;4.55;;;3.80;;
4692;SDS011;11710;48.024;16.296;2023-04-03T19:02:03;4.03;;;3.63;;
4692;SDS011;11710;48.024;16.296;2023-04-03T19:04:30;7.60;;;5.43;;
4692;SDS011;11710;48.024;16.296;2023-04-03T19:06:58;5.10;;;3.90;;
